Lancaster, SC

2:58 PM EDT on March 31, 2015 (GMT -0400)
City of Lancaster | | Change Station
CLOSE
Current Station
Personal Weather Station
Location: Lancaster, SC
Elevation: 479 ft
Nearby Weather Stations

Elev 479 ft 34.73 °N, 80.77 °W | Updated 10 seconds ago

Clear
Clear
72.9 °F
Feels Like 76 °F
N
8.0
Wind Variable Wind from West
Gusts 14.0 mph

Today
High -- | Low -- °F
--% Chance of Precip.
Yesterday
High -- | Low -- °F
Precip. -- in
7:11 AM 7:43 PM
Waxing Gibbous, 88% visible
Pressure 29.90 in
Visibility 10.0 miles
Clouds Clear
Heat Index 76 °F
Dew Point 37 °F
Humidity 27%
Rainfall 0.00 in
Snow Depth Not available.
UV 8 out of 12
Pollen 9.90 out of 12
Air Quality Not available.
Flu Activity Not available.
METAR KEQY 311853Z AUTO 21013G19KT 10SM CLR 23/M01 A2988 RMK AO2 SLP125 T02331006

More Conditions Fewer Conditions

Pressure 29.90 in
Visibility 10.0 miles
Clouds Clear
Heat Index 76 °F
Dew Point 37 °F
Humidity 27%
Rainfall 0.00 in
Snow Depth Not available.
UV 8 out of 12
Pollen 9.90 out of 12
Air Quality Not available.
Flu Activity Not available.
METAR KEQY 311853Z AUTO 21013G19KT 10SM CLR 23/M01 A2988 RMK AO2 SLP125 T02331006

More Conditions Fewer Conditions

10-Day Weather Forecast

Almanac

Astronomy

Mar. 31, 2015 Rise Set
Actual Time
Civil Twilight
Nautical Twilight
Astronomical Twilight
Moon
Length of Visible Light
Length of Day
Tomorrow will be .
, % of the Moon is Illuminated

Today's Extremes

State Highs State Lows

Community

WunderPhotos

Upload Photos

1,809,792 photos uploaded!

WunderBlogs® & News

Nearby

Air Quality

  Air Quality AQ Index Pollutant
Not available.

Snow Depth

Station Depth Elevation

Earthquake Activity

City Distance Mag. Time & Date
Minimum magnitude displayed is 2.5.

Coastal Water Temperatures

Place Temperature

Stations

Nearby Weather Stations

Station Location Temp. Windchill Dew Point Humidity Wind Precip. Elev Updated Type